Time;durP1;ratioP1;P1;durP2;ratioP2;P2;SDS_P1;SDS_P2;PMS_P1;PMS_P2;Temp;Humidity;BMP_temperature;BMP_pressure;BME280_temperature;BME280_humidity;BME280_pressure;Samples;Min_cycle;Max_cycle;Signal;HPM_P1;HPM_P2
2023/03/05 00:01:40;;;;;;;34.20;21.63;;;;;;;2.30;100.00;96977.00;5053126;28;20194;-78
2023/03/05 00:04:09;;;;;;;37.07;21.50;;;;;;;2.32;100.00;96977.66;5053336;28;20216;-78
2023/03/05 00:06:34;;;;;;;35.00;22.00;;;;;;;2.33;99.85;96971.50;5053323;28;20217;-78
2023/03/05 00:09:00;;;;;;;32.97;20.90;;;;;;;2.27;100.00;96974.75;5053118;28;20249;-78
2023/03/05 00:11:28;;;;;;;35.47;21.70;;;;;;;2.26;100.00;96983.50;5053158;28;20229;-77
2023/03/05 00:13:54;;;;;;;38.40;22.70;;;;;;;2.32;99.98;96978.44;5053237;28;20201;-77
2023/03/05 00:16:21;;;;;;;32.63;20.93;;;;;;;2.27;100.00;96980.75;5053165;28;20205;-77
2023/03/05 00:18:47;;;;;;;38.17;22.67;;;;;;;2.27;100.00;96980.75;5052199;28;20651;-77
2023/03/05 00:21:27;;;;;;;34.30;21.77;;;;;;;2.28;100.00;96977.19;5051981;28;20214;-77
2023/03/05 00:23:54;;;;;;;36.50;22.83;;;;;;;2.22;100.00;96967.53;5052348;28;20653;-79
2023/03/05 00:26:22;;;;;;;36.00;22.17;;;;;;;2.31;100.00;96970.84;5053344;28;20256;-77
2023/03/05 00:28:49;;;;;;;34.30;21.97;;;;;;;2.31;100.00;96966.50;5053026;28;20267;-77
2023/03/05 00:31:20;;;;;;;36.00;22.83;;;;;;;2.26;100.00;96968.78;5053000;28;20186;-77
2023/03/05 00:33:45;;;;;;;38.47;22.03;;;;;;;2.33;100.00;96968.91;5031792;28;20229;-78
2023/03/05 00:36:11;;;;;;;32.77;21.70;;;;;;;2.32;100.00;96970.69;5050837;28;20671;-77
2023/03/05 00:38:36;;;;;;;37.77;22.40;;;;;;;2.41;100.00;96963.69;5052641;28;20201;-77
2023/03/05 00:41:02;;;;;;;31.20;20.47;;;;;;;2.38;100.00;96964.84;5051179;28;20232;-77
2023/03/05 00:43:28;;;;;;;34.00;21.77;;;;;;;2.43;99.67;96957.38;5052855;28;20185;-77
2023/03/05 00:45:53;;;;;;;34.20;22.17;;;;;;;2.42;100.00;96966.09;5051873;28;20193;-77
2023/03/05 00:48:19;;;;;;;31.80;20.40;;;;;;;2.39;100.00;96958.69;5052674;28;20216;-77
2023/03/05 00:50:44;;;;;;;33.60;19.97;;;;;;;2.37;100.00;96963.22;5052923;28;20193;-77
2023/03/05 00:53:09;;;;;;;33.07;20.70;;;;;;;2.40;100.00;96957.69;5052873;28;20651;-77
2023/03/05 00:55:35;;;;;;;38.37;22.20;;;;;;;2.30;100.00;96957.13;5052833;28;20196;-78
2023/03/05 00:58:01;;;;;;;40.10;21.43;;;;;;;2.36;100.00;96956.44;5050768;28;20275;-77
2023/03/05 01:00:26;;;;;;;35.73;20.07;;;;;;;2.34;100.00;96955.00;5052983;28;20221;-77
2023/03/05 01:02:51;;;;;;;29.73;19.30;;;;;;;2.38;100.00;96946.75;5052760;28;20275;-77
2023/03/05 01:05:17;;;;;;;36.90;20.90;;;;;;;2.30;100.00;96945.97;5052617;28;20194;-77
2023/03/05 01:07:42;;;;;;;38.50;20.67;;;;;;;2.29;100.00;96942.56;5052702;28;20210;-76
2023/03/05 01:10:08;;;;;;;37.00;20.23;;;;;;;2.37;100.00;96941.72;5052364;28;20248;-77
2023/03/05 01:12:34;;;;;;;34.70;20.27;;;;;;;2.24;100.00;96939.69;5052626;28;20228;-76
2023/03/05 01:14:59;;;;;;;37.83;19.63;;;;;;;2.33;100.00;96941.28;5052550;28;20198;-76
2023/03/05 01:17:24;;;;;;;36.57;19.73;;;;;;;2.34;100.00;96940.28;5052120;28;20217;-77
2023/03/05 01:19:50;;;;;;;35.70;20.80;;;;;;;2.24;100.00;96939.69;5052788;28;20554;-77
2023/03/05 01:22:15;;;;;;;35.13;20.00;;;;;;;2.30;100.00;96933.03;5051647;28;20562;-77
2023/03/05 01:24:40;;;;;;;34.23;19.80;;;;;;;2.35;100.00;96935.91;5052362;28;20602;-77
2023/03/05 01:27:06;;;;;;;35.97;19.50;;;;;;;2.25;100.00;96930.16;5052014;28;20617;-76
2023/03/05 01:29:31;;;;;;;34.63;20.57;;;;;;;2.25;100.00;96925.00;5054934;28;20297;-76
2023/03/05 01:31:56;;;;;;;35.97;20.30;;;;;;;2.08;100.00;96927.66;5054937;28;20182;-77
2023/03/05 01:34:22;;;;;;;35.40;20.20;;;;;;;2.23;100.00;96922.56;5054918;28;20237;-77
2023/03/05 01:36:49;;;;;;;37.37;21.13;;;;;;;2.31;100.00;96919.94;5055933;28;20191;-77
2023/03/05 01:39:15;;;;;;;34.13;19.60;;;;;;;2.25;100.00;96917.22;5056212;28;20281;-77
2023/03/05 01:41:40;;;;;;;35.07;20.50;;;;;;;2.34;100.00;96906.66;5056033;28;20284;-77
2023/03/05 01:44:06;;;;;;;37.33;20.67;;;;;;;2.29;100.00;96908.97;5055979;28;20273;-77
2023/03/05 01:46:37;;;;;;;34.43;21.20;;;;;;;2.24;100.00;96907.84;5055751;28;20223;-77
2023/03/05 01:49:05;;;;;;;35.37;20.73;;;;;;;2.21;100.00;96900.47;5056210;28;20722;-76
2023/03/05 01:51:37;;;;;;;30.77;20.07;;;;;;;2.30;100.00;96897.63;5055873;28;20197;-77
2023/03/05 01:54:06;;;;;;;34.83;21.20;;;;;;;2.19;100.00;96905.00;5055880;28;20653;-76
2023/03/05 01:56:31;;;;;;;37.17;22.13;;;;;;;2.29;100.00;96893.44;5055368;28;20514;-77
2023/03/05 01:59:02;;;;;;;33.27;19.70;;;;;;;2.27;100.00;96900.59;5055978;28;20248;-77
2023/03/05 02:01:35;;;;;;;36.80;21.53;;;;;;;2.31;100.00;96896.66;5055716;28;20186;-77
2023/03/05 02:04:01;;;;;;;36.73;20.97;;;;;;;2.23;100.00;96888.94;5055663;28;20202;-76
2023/03/05 02:06:26;;;;;;;39.43;19.87;;;;;;;2.30;100.00;96887.31;5055426;28;20182;-76
2023/03/05 02:08:52;;;;;;;38.47;21.60;;;;;;;2.31;100.00;96888.09;5054587;28;20213;-76
2023/03/05 02:11:19;;;;;;;38.13;21.57;;;;;;;2.30;100.00;96881.31;5055762;28;20186;-77
2023/03/05 02:13:44;;;;;;;34.43;21.40;;;;;;;2.37;100.00;96879.66;5055382;28;20201;-77
2023/03/05 02:16:10;;;;;;;38.50;21.10;;;;;;;2.31;100.00;96872.59;5054708;28;20194;-76
2023/03/05 02:18:35;;;;;;;38.67;20.60;;;;;;;2.35;100.00;96876.44;5055557;28;20646;-77
2023/03/05 02:21:03;;;;;;;33.63;20.20;;;;;;;2.27;100.00;96872.13;5054913;28;20233;-77
2023/03/05 02:23:32;;;;;;;33.63;20.53;;;;;;;2.34;100.00;96867.09;5054980;28;20193;-76
2023/03/05 02:25:58;;;;;;;36.87;22.10;;;;;;;2.27;100.00;96858.41;5054352;28;20189;-84
2023/03/05 02:28:34;;;;;;;37.50;21.20;;;;;;;2.31;100.00;96862.25;5054864;28;20654;-77
2023/03/05 02:30:59;;;;;;;32.10;19.40;;;;;;;2.38;100.00;96858.00;5054510;28;20202;-77
2023/03/05 02:33:25;;;;;;;35.57;18.93;;;;;;;2.36;100.00;96859.94;5054143;28;20194;-77
2023/03/05 02:35:50;;;;;;;33.60;20.13;;;;;;;2.24;100.00;96862.13;5053176;28;20226;-77
2023/03/05 02:38:18;;;;;;;32.77;18.97;;;;;;;2.38;100.00;96858.81;5053944;28;20612;-77
2023/03/05 02:40:44;;;;;;;30.23;18.47;;;;;;;2.34;100.00;96856.75;5054022;28;20186;-77
2023/03/05 02:43:10;;;;;;;30.17;17.67;;;;;;;2.33;100.00;96848.19;5055054;28;20197;-77
2023/03/05 02:45:36;;;;;;;27.33;16.70;;;;;;;2.43;100.00;96855.69;5054857;28;20209;-77
2023/03/05 02:48:01;;;;;;;31.53;16.83;;;;;;;2.41;100.00;96847.28;5054552;28;20729;-77
2023/03/05 02:50:27;;;;;;;28.67;17.27;;;;;;;2.59;100.00;96845.22;5053310;28;20189;-77
2023/03/05 02:52:53;;;;;;;28.27;16.20;;;;;;;2.59;100.00;96850.38;5054825;28;20197;-77
2023/03/05 02:55:18;;;;;;;25.30;15.97;;;;;;;2.44;100.00;96840.00;5054519;28;20190;-77
2023/03/05 02:57:44;;;;;;;31.03;17.73;;;;;;;2.55;100.00;96841.38;5053146;28;20558;-78
2023/03/05 03:00:10;;;;;;;28.47;16.87;;;;;;;2.56;100.00;96839.59;5054200;28;20247;-77
2023/03/05 03:02:35;;;;;;;28.77;16.17;;;;;;;2.68;100.00;96838.97;5053813;28;20693;-77
2023/03/05 03:05:01;;;;;;;31.40;15.93;;;;;;;2.64;100.00;96829.16;5053650;28;20178;-77
2023/03/05 03:07:26;;;;;;;28.17;17.63;;;;;;;2.63;100.00;96824.97;5054267;28;20212;-77
2023/03/05 03:09:51;;;;;;;27.33;15.33;;;;;;;2.56;100.00;96821.50;5053791;28;20534;-77
2023/03/05 03:12:17;;;;;;;39.17;17.33;;;;;;;2.55;100.00;96827.63;5053118;28;20201;-77
2023/03/05 03:14:43;;;;;;;22.20;15.00;;;;;;;2.51;100.00;96824.56;5054495;28;20276;-77
2023/03/05 03:17:11;;;;;;;29.23;19.10;;;;;;;2.48;100.00;96822.34;5054298;28;20579;-77
2023/03/05 03:19:37;;;;;;;27.10;18.30;;;;;;;2.43;100.00;96822.88;5053972;28;20607;-77
2023/03/05 03:22:03;;;;;;;28.60;19.27;;;;;;;2.47;100.00;96823.31;5054139;28;20220;-77
2023/03/05 03:24:30;;;;;;;28.70;18.33;;;;;;;2.46;100.00;96822.50;5054335;28;20657;-77
2023/03/05 03:26:55;;;;;;;24.13;17.37;;;;;;;2.61;100.00;96814.81;5053946;28;20194;-77
2023/03/05 03:29:21;;;;;;;24.43;16.23;;;;;;;2.63;100.00;96819.78;5054011;28;20209;-77
2023/03/05 03:31:46;;;;;;;25.83;15.53;;;;;;;2.48;100.00;96817.97;5053746;28;20198;-77
2023/03/05 03:34:13;;;;;;;26.87;16.10;;;;;;;2.62;100.00;96813.03;5053009;28;20230;-77
2023/03/05 03:36:39;;;;;;;26.60;15.57;;;;;;;2.46;100.00;96809.59;5054254;28;20189;-77
2023/03/05 03:39:04;;;;;;;24.23;15.57;;;;;;;2.45;100.00;96809.78;5053635;28;20202;-77
2023/03/05 03:41:31;;;;;;;24.37;14.23;;;;;;;2.49;100.00;96811.03;5053851;28;20216;-77
2023/03/05 03:43:56;;;;;;;25.63;14.20;;;;;;;2.56;100.00;96798.19;5053777;28;20193;-77
2023/03/05 03:46:22;;;;;;;25.77;14.63;;;;;;;2.42;100.00;96799.78;5053476;28;20635;-76
2023/03/05 03:48:50;;;;;;;22.63;13.47;;;;;;;2.37;100.00;96796.91;5053264;28;20564;-77
2023/03/05 03:51:15;;;;;;;26.10;14.33;;;;;;;2.39;100.00;96789.78;5053687;28;20190;-77
2023/03/05 03:53:40;;;;;;;28.87;15.40;;;;;;;2.44;100.00;96803.00;5058306;28;20383;-77
2023/03/05 03:56:06;;;;;;;21.33;14.07;;;;;;;2.33;100.00;96795.66;5056006;28;20643;-77
2023/03/05 03:58:32;;;;;;;29.03;15.23;;;;;;;2.44;100.00;96787.47;5053605;28;20189;-77
2023/03/05 04:00:57;;;;;;;34.00;16.77;;;;;;;2.34;100.00;96789.50;5053556;28;20200;-77
2023/03/05 04:03:22;;;;;;;29.40;17.97;;;;;;;2.23;100.00;96782.94;5053597;28;20218;-77
2023/03/05 04:05:48;;;;;;;34.50;19.93;;;;;;;2.36;100.00;96778.00;5053201;28;20554;-77
2023/03/05 04:08:13;;;;;;;37.23;19.33;;;;;;;2.30;100.00;96783.06;5053014;28;20306;-77
2023/03/05 04:10:38;;;;;;;37.93;19.70;;;;;;;2.30;100.00;96781.28;5053564;28;20256;-77
2023/03/05 04:13:05;;;;;;;38.90;20.57;;;;;;;2.34;100.00;96779.94;5053167;28;20244;-76
2023/03/05 04:15:32;;;;;;;28.73;16.80;;;;;;;2.43;100.00;96780.69;5053502;28;20194;-77
2023/03/05 04:17:57;;;;;;;27.50;16.03;;;;;;;2.56;100.00;96777.50;5052501;28;20600;-77
2023/03/05 04:20:22;;;;;;;29.90;18.57;;;;;;;2.42;100.00;96782.47;5052680;28;20201;-76
2023/03/05 04:22:48;;;;;;;35.13;18.73;;;;;;;2.59;100.00;96779.72;5051758;28;20276;-76
2023/03/05 04:25:13;;;;;;;36.63;20.10;;;;;;;2.52;100.00;96782.22;5051989;28;20609;-76
2023/03/05 04:27:39;;;;;;;28.70;17.00;;;;;;;2.65;100.00;96779.84;5053115;28;20670;-76
2023/03/05 04:30:05;;;;;;;27.17;16.30;;;;;;;2.55;100.00;96778.47;5052754;28;20553;-77
2023/03/05 04:32:31;;;;;;;25.97;14.70;;;;;;;2.47;100.00;96777.56;5051985;28;20197;-77
2023/03/05 04:34:56;;;;;;;25.80;14.13;;;;;;;2.50;100.00;96772.06;5052038;28;20252;-76
2023/03/05 04:37:23;;;;;;;23.40;15.23;;;;;;;2.51;100.00;96773.66;5052599;28;20237;-76
2023/03/05 04:39:48;;;;;;;26.37;14.67;;;;;;;2.57;100.00;96769.56;5052843;28;20205;-76
2023/03/05 04:42:13;;;;;;;22.30;13.53;;;;;;;2.57;100.00;96769.56;5052354;28;20198;-77
2023/03/05 04:44:39;;;;;;;20.33;13.67;;;;;;;2.47;100.00;96764.63;5052813;28;20196;-77
2023/03/05 04:47:04;;;;;;;25.07;13.87;;;;;;;2.54;100.00;96769.91;5051283;28;20198;-76
2023/03/05 04:49:30;;;;;;;23.43;14.03;;;;;;;2.66;100.00;96763.34;5053201;28;20194;-76
2023/03/05 04:51:56;;;;;;;24.07;13.97;;;;;;;2.53;100.00;96762.31;5051489;28;20197;-77
2023/03/05 04:54:22;;;;;;;28.73;15.47;;;;;;;2.53;100.00;96759.75;5035042;28;20617;-76
2023/03/05 04:56:48;;;;;;;26.13;14.73;;;;;;;2.42;100.00;96759.19;5052622;28;20208;-79
2023/03/05 04:59:13;;;;;;;25.00;15.97;;;;;;;2.51;100.00;96760.72;5051504;28;20643;-77
2023/03/05 05:01:38;;;;;;;23.73;14.00;;;;;;;2.47;100.00;96762.06;5052527;28;20198;-76
2023/03/05 05:04:04;;;;;;;25.40;13.67;;;;;;;2.57;100.00;96754.03;5053959;28;20280;-76
2023/03/05 05:06:29;;;;;;;22.33;13.00;;;;;;;2.55;100.00;96756.00;5056915;28;20197;-77
2023/03/05 05:08:55;;;;;;;21.27;12.33;;;;;;;2.53;100.00;96760.53;5056729;28;20221;-77
2023/03/05 05:11:20;;;;;;;25.47;12.93;;;;;;;2.54;100.00;96751.81;5056393;28;20201;-77
2023/03/05 05:13:45;;;;;;;27.30;13.80;;;;;;;2.46;100.00;96744.91;5056316;28;20198;-77
2023/03/05 05:16:11;;;;;;;23.57;13.63;;;;;;;2.46;100.00;96751.88;5056280;28;20562;-76
2023/03/05 05:18:36;;;;;;;27.90;14.23;;;;;;;2.40;100.00;96750.00;5055043;28;20288;-76
2023/03/05 05:21:06;;;;;;;26.60;14.97;;;;;;;2.45;100.00;96743.31;5056645;28;20186;-77
2023/03/05 05:23:31;;;;;;;26.57;13.23;;;;;;;2.51;100.00;96741.78;5056293;28;20185;-76
2023/03/05 05:26:01;;;;;;;27.57;13.43;;;;;;;2.49;100.00;96748.94;5056535;28;20216;-76
2023/03/05 05:28:27;;;;;;;22.47;14.30;;;;;;;2.40;100.00;96743.03;5056431;28;20550;-76
2023/03/05 05:30:52;;;;;;;21.90;13.70;;;;;;;2.37;100.00;96750.34;5056238;28;20227;-77
2023/03/05 05:33:18;;;;;;;26.80;13.67;;;;;;;2.40;100.00;96750.78;5054308;28;20596;-76
2023/03/05 05:35:43;;;;;;;24.97;14.00;;;;;;;2.50;100.00;96750.56;5055928;28;20317;-77
2023/03/05 05:38:08;;;;;;;20.87;13.70;;;;;;;2.39;100.00;96746.63;5056128;28;20654;-76
2023/03/05 05:40:34;;;;;;;27.23;13.70;;;;;;;2.40;100.00;96745.63;5056272;28;20269;-76
2023/03/05 05:42:59;;;;;;;27.27;14.37;;;;;;;2.34;100.00;96750.72;5056233;28;20266;-77
2023/03/05 05:45:24;;;;;;;27.40;14.40;;;;;;;2.29;100.00;96750.41;5055940;28;20196;-77
2023/03/05 05:47:50;;;;;;;25.63;14.07;;;;;;;2.29;100.00;96750.41;5055189;28;20201;-76
2023/03/05 05:50:15;;;;;;;26.83;15.70;;;;;;;2.27;100.00;96745.44;5055401;28;20642;-77
2023/03/05 05:52:41;;;;;;;24.97;15.20;;;;;;;2.32;100.00;96752.66;5055884;28;20273;-76
2023/03/05 05:55:06;;;;;;;23.87;15.83;;;;;;;2.31;100.00;96751.06;5055774;28;20186;-77
2023/03/05 05:57:33;;;;;;;23.57;14.90;;;;;;;2.30;100.00;96746.84;5055641;28;20194;-81
2023/03/05 05:59:58;;;;;;;26.43;15.77;;;;;;;2.22;100.00;96747.75;5055351;28;20194;-77
2023/03/05 06:02:23;;;;;;;21.93;15.67;;;;;;;2.23;100.00;96745.97;5055862;28;20196;-76
2023/03/05 06:04:49;;;;;;;24.87;15.57;;;;;;;2.16;100.00;96751.03;5055486;28;20183;-77
2023/03/05 06:07:14;;;;;;;26.33;16.70;;;;;;;2.15;100.00;96748.63;5055626;28;20736;-76
2023/03/05 06:09:39;;;;;;;24.77;15.47;;;;;;;2.12;100.00;96746.41;5054096;28;20237;-77
2023/03/05 06:12:05;;;;;;;33.60;17.73;;;;;;;2.22;100.00;96747.75;5053938;28;20194;-77
2023/03/05 06:14:31;;;;;;;24.63;16.30;;;;;;;2.27;100.00;96744.63;5055506;28;20237;-77
2023/03/05 06:16:56;;;;;;;26.80;17.20;;;;;;;2.24;100.00;96743.19;5053584;28;20647;-77
2023/03/05 06:19:21;;;;;;;26.53;16.13;;;;;;;2.15;100.00;96751.19;5054274;28;20190;-77
2023/03/05 06:21:47;;;;;;;30.80;17.53;;;;;;;2.23;100.00;96745.97;5055189;28;20232;-77
2023/03/05 06:24:12;;;;;;;27.27;16.07;;;;;;;2.22;100.00;96737.41;5055238;28;20210;-77
2023/03/05 06:26:38;;;;;;;25.23;16.23;;;;;;;2.31;100.00;96745.88;5053847;28;20194;-77
2023/03/05 06:29:03;;;;;;;27.53;16.47;;;;;;;2.29;100.00;96746.06;5055021;28;20296;-78
2023/03/05 06:31:29;;;;;;;27.60;16.23;;;;;;;2.29;100.00;96747.84;5054947;28;20194;-77
2023/03/05 06:33:57;;;;;;;29.73;16.07;;;;;;;2.18;100.00;96741.31;5054114;28;20198;-77
2023/03/05 06:36:23;;;;;;;26.73;15.73;;;;;;;2.17;100.00;96747.47;5055017;28;20197;-77
2023/03/05 06:38:51;;;;;;;29.50;16.13;;;;;;;2.26;100.00;96738.66;5055394;28;20198;-77
2023/03/05 06:41:20;;;;;;;25.60;16.63;;;;;;;2.37;100.00;96743.41;5055080;28;20193;-77
2023/03/05 06:43:46;;;;;;;26.53;17.33;;;;;;;2.31;100.00;96732.97;5054859;28;20205;-77
2023/03/05 06:46:14;;;;;;;28.13;17.40;;;;;;;2.39;100.00;96736.28;5054689;28;20320;-77
2023/03/05 06:48:41;;;;;;;26.57;16.03;;;;;;;2.45;100.00;96734.78;5054980;28;20245;-77
2023/03/05 06:51:23;;;;;;;29.93;17.10;;;;;;;2.41;100.00;96733.50;5054862;28;20201;-77
2023/03/05 06:53:49;;;;;;;33.00;17.30;;;;;;;2.33;100.00;96736.19;5054403;28;20635;-78
2023/03/05 06:56:16;;;;;;;29.23;16.47;;;;;;;2.37;100.00;96729.66;5054365;28;20190;-77
2023/03/05 06:58:44;;;;;;;26.43;17.27;;;;;;;2.42;100.00;96740.28;5054753;28;20186;-78
2023/03/05 07:01:09;;;;;;;32.37;17.53;;;;;;;2.45;100.00;96740.72;5054458;28;20209;-78
2023/03/05 07:03:35;;;;;;;32.97;16.60;;;;;;;2.38;100.00;96739.03;5054289;28;20275;-77
2023/03/05 07:06:03;;;;;;;32.43;16.90;;;;;;;2.38;100.00;96739.84;5054398;28;20701;-77
2023/03/05 07:08:28;;;;;;;29.23;16.60;;;;;;;2.44;100.00;96735.75;5054135;28;20225;-78
2023/03/05 07:10:54;;;;;;;28.60;16.47;;;;;;;2.39;100.00;96736.28;5053982;28;20266;-77
2023/03/05 07:13:19;;;;;;;32.03;17.57;;;;;;;2.59;100.00;96741.72;5053870;28;20607;-77
2023/03/05 07:15:44;;;;;;;24.33;16.83;;;;;;;2.51;100.00;96736.63;5054405;28;20190;-77
2023/03/05 07:18:09;;;;;;;30.87;18.97;;;;;;;2.53;100.00;96741.63;5053913;28;20202;-77
2023/03/05 07:20:35;;;;;;;29.93;18.93;;;;;;;2.60;100.00;96740.75;5054336;28;20202;-77
2023/03/05 07:23:01;;;;;;;29.93;19.50;;;;;;;2.54;100.00;96738.88;5053803;28;20201;-77
2023/03/05 07:25:26;;;;;;;25.70;16.80;;;;;;;2.76;100.00;96734.59;5053930;28;20603;-77
2023/03/05 07:27:52;;;;;;;26.30;16.37;;;;;;;2.69;100.00;96728.53;5053134;28;20624;-77
2023/03/05 07:30:17;;;;;;;29.93;16.37;;;;;;;2.82;100.00;96721.75;5053955;28;20716;-79
2023/03/05 07:32:43;;;;;;;29.33;17.60;;;;;;;2.88;100.00;96723.63;5053214;28;20198;-78
2023/03/05 07:35:08;;;;;;;31.30;17.63;;;;;;;2.81;100.00;96729.69;5053602;28;20578;-77
2023/03/05 07:37:34;;;;;;;28.37;16.30;;;;;;;2.86;100.00;96719.59;5053546;28;20193;-79
2023/03/05 07:39:59;;;;;;;24.23;15.10;;;;;;;2.80;100.00;96723.69;5053883;28;20194;-77
2023/03/05 07:42:25;;;;;;;24.13;15.63;;;;;;;2.69;100.00;96718.16;5054017;28;20697;-79
2023/03/05 07:44:50;;;;;;;26.70;16.40;;;;;;;2.66;100.00;96727.09;5053246;28;20273;-77
2023/03/05 07:47:15;;;;;;;24.47;16.33;;;;;;;2.73;100.00;96717.63;5053513;28;20198;-77
2023/03/05 07:49:41;;;;;;;25.30;15.57;;;;;;;2.85;100.00;96718.78;5053041;28;20650;-77
2023/03/05 07:52:08;;;;;;;26.87;16.07;;;;;;;2.85;100.00;96718.78;5053773;28;20197;-77
2023/03/05 07:54:37;;;;;;;29.00;15.70;;;;;;;2.98;100.00;96720.75;5053228;28;20193;-78
2023/03/05 07:57:03;;;;;;;26.80;17.43;;;;;;;2.90;100.00;96719.06;5052022;28;20549;-77
2023/03/05 07:59:28;;;;;;;26.37;17.10;;;;;;;2.73;100.00;96722.81;5053248;28;20646;-77
2023/03/05 08:01:54;;;;;;;21.90;16.50;;;;;;;2.82;100.00;96721.75;5051533;28;20212;-76
2023/03/05 08:04:19;;;;;;;29.57;18.80;;;;;;;2.73;100.00;96727.22;5053395;28;20580;-77
2023/03/05 08:06:45;;;;;;;26.03;18.37;;;;;;;2.89;100.00;96724.44;5052924;28;20773;-77
2023/03/05 08:09:11;;;;;;;28.27;17.73;;;;;;;3.20;100.00;96716.44;5053212;28;20626;-77
2023/03/05 08:11:38;;;;;;;25.37;17.13;;;;;;;3.27;100.00;96712.94;5052616;28;20675;-81
2023/03/05 08:14:04;;;;;;;26.33;16.53;;;;;;;3.12;100.00;96724.31;5053018;28;20200;-77
2023/03/05 08:16:30;;;;;;;24.83;19.67;;;;;;;2.95;100.00;96713.34;5053078;28;20186;-77
2023/03/05 08:18:57;;;;;;;28.33;18.57;;;;;;;2.89;100.00;96724.44;5052852;28;20198;-77
2023/03/05 08:21:34;;;;;;;30.80;18.77;;;;;;;2.90;100.00;96719.06;5053146;28;20283;-77
2023/03/05 08:24:03;;;;;;;26.37;20.07;;;;;;;3.04;100.00;96716.63;5053172;28;20240;-77
2023/03/05 08:26:30;;;;;;;26.30;17.67;;;;;;;3.21;100.00;96713.66;5051026;28;20178;-79
2023/03/05 08:28:56;;;;;;;22.23;13.93;;;;;;;3.33;100.00;96706.22;5052941;28;20813;-79
2023/03/05 08:31:23;;;;;;;27.10;15.00;;;;;;;3.39;100.00;96718.44;5053978;28;20218;-84
2023/03/05 08:33:51;;;;;;;26.07;14.93;;;;;;;3.17;100.00;96715.03;5052053;28;20193;-76
2023/03/05 08:36:16;;;;;;;23.27;13.73;;;;;;;3.30;100.00;96715.16;5052655;28;20665;-76
2023/03/05 08:38:43;;;;;;;24.13;15.73;;;;;;;3.25;100.00;96711.50;5051500;28;20194;-76
2023/03/05 08:41:10;;;;;;;26.83;16.40;;;;;;;3.42;100.00;96705.13;5052299;28;20293;-77
2023/03/05 08:43:35;;;;;;;26.90;16.47;;;;;;;3.07;100.00;96709.28;5052561;28;20217;-76
2023/03/05 08:46:01;;;;;;;31.23;16.00;;;;;;;3.07;100.00;96704.13;5052670;28;20185;-78
2023/03/05 08:48:27;;;;;;;20.90;14.23;;;;;;;3.30;100.00;96698.81;5052101;28;20210;-76
2023/03/05 08:50:53;;;;;;;23.43;15.67;;;;;;;3.49;100.00;96703.41;5052569;28;20186;-76
2023/03/05 08:53:18;;;;;;;21.67;15.50;;;;;;;3.51;100.00;96704.00;5036292;28;20630;-78
2023/03/05 08:55:53;;;;;;;21.93;16.10;;;;;;;3.29;100.00;96694.59;5052497;28;20557;-77
2023/03/05 08:58:18;;;;;;;22.43;14.53;;;;;;;3.26;100.00;96697.56;5052156;28;20185;-78
2023/03/05 09:00:43;;;;;;;25.40;14.40;;;;;;;3.35;100.00;96699.06;5049786;28;20192;-78
2023/03/05 09:03:09;;;;;;;23.43;14.90;;;;;;;3.38;100.00;96696.13;5056718;28;20328;-75
2023/03/05 09:05:34;;;;;;;25.00;17.30;;;;;;;3.33;99.49;96693.28;5052636;28;20268;-78
2023/03/05 09:08:00;;;;;;;24.37;16.10;;;;;;;3.45;99.03;96691.00;5052506;28;20633;-78
2023/03/05 09:10:25;;;;;;;23.33;15.50;;;;;;;3.38;98.62;96693.53;5051938;28;20205;-77
2023/03/05 09:12:50;;;;;;;23.73;15.80;;;;;;;3.49;98.28;96689.66;5058256;28;20220;-76
2023/03/05 09:15:16;;;;;;;26.93;16.77;;;;;;;3.39;98.97;96687.38;5056996;28;20182;-75
2023/03/05 09:17:41;;;;;;;24.37;15.60;;;;;;;3.43;97.91;96686.00;5051913;28;20653;-78
2023/03/05 09:20:11;;;;;;;23.43;15.87;;;;;;;3.48;98.06;96683.66;5054212;28;20216;-76
2023/03/05 09:22:37;;;;;;;23.33;16.27;;;;;;;3.53;97.40;96683.91;5059925;28;20627;-79
2023/03/05 09:25:02;;;;;;;21.07;14.67;;;;;;;3.50;96.34;96683.47;5057435;28;20198;-76
2023/03/05 09:27:28;;;;;;;26.17;15.87;;;;;;;3.18;98.56;96677.75;5051498;28;20283;-75
2023/03/05 09:29:54;;;;;;;23.50;17.53;;;;;;;3.48;98.53;96678.47;5051654;28;20643;-77
2023/03/05 09:32:20;;;;;;;22.43;16.17;;;;;;;3.73;96.82;96676.31;5051426;28;20194;-76
2023/03/05 09:34:45;;;;;;;18.60;14.63;;;;;;;3.76;96.11;96668.97;5051911;28;20592;-75
2023/03/05 09:37:10;;;;;;;21.77;16.13;;;;;;;3.82;96.01;96675.19;5052388;28;20252;-76
2023/03/05 09:39:36;;;;;;;24.07;15.20;;;;;;;3.60;95.44;96671.00;5052063;28;20194;-76
2023/03/05 09:42:07;;;;;;;25.33;18.63;;;;;;;3.43;98.83;96665.28;5052365;28;20198;-72
2023/03/05 09:45:02;;;;;;;26.87;17.93;;;;;;;3.56;97.09;96665.41;5052628;28;20182;-75
2023/03/05 09:47:57;;;;;;;29.53;18.33;;;;;;;3.76;96.20;96658.59;5051964;28;20210;-76
2023/03/05 09:50:36;;;;;;;26.77;18.83;;;;;;;4.23;94.59;96666.72;5054264;28;20232;-74
2023/03/05 09:53:22;;;;;;;23.57;16.40;;;;;;;4.38;93.41;96670.03;5055963;28;20284;-75
2023/03/05 09:55:51;;;;;;;26.93;17.37;;;;;;;4.61;90.86;96654.97;5055604;28;20210;-75
2023/03/05 09:58:37;;;;;;;21.40;16.07;;;;;;;4.71;89.14;96657.22;5055663;28;20732;-78
2023/03/05 10:01:05;;;;;;;25.73;17.70;;;;;;;4.54;89.18;96648.94;5054016;28;20225;-75
2023/03/05 10:03:58;;;;;;;23.47;16.27;;;;;;;4.59;88.45;96649.97;5054099;28;20201;-77
2023/03/05 10:06:35;;;;;;;23.13;17.40;;;;;;;4.80;85.18;96649.06;5055516;28;20209;-75
2023/03/05 10:09:10;;;;;;;22.13;17.00;;;;;;;4.46;86.97;96652.50;5055658;28;20300;-75
2023/03/05 10:11:49;;;;;;;25.53;18.20;;;;;;;4.37;87.59;96643.28;5055539;28;20194;-76
2023/03/05 10:14:23;;;;;;;20.87;16.17;;;;;;;4.37;88.37;96648.47;5055856;28;20260;-75
2023/03/05 10:16:59;;;;;;;23.77;17.53;;;;;;;4.24;88.95;96645.78;5055156;28;20184;-80
2023/03/05 10:19:27;;;;;;;24.57;16.33;;;;;;;3.95;89.44;96640.81;5059887;28;20193;-80
2023/03/05 10:22:00;;;;;;;22.93;15.60;;;;;;;4.16;88.89;96645.94;5057076;28;20955;-79
2023/03/05 10:24:46;;;;;;;25.53;15.90;;;;;;;4.50;87.21;96640.75;5057665;28;20183;-76
2023/03/05 10:27:37;;;;;;;22.70;15.47;;;;;;;4.72;86.64;96635.47;5054620;28;20276;-76
2023/03/05 10:30:37;;;;;;;20.30;14.83;;;;;;;4.91;85.66;96643.31;5055249;28;20236;-76
2023/03/05 10:33:26;;;;;;;27.77;16.03;;;;;;;4.67;85.60;96638.66;5053298;28;20331;-78
2023/03/05 10:36:07;;;;;;;22.57;14.60;;;;;;;4.45;88.01;96634.53;5055185;28;20231;-78
2023/03/05 10:38:37;;;;;;;22.07;15.27;;;;;;;4.24;88.55;96632.81;5055915;28;20251;-78
2023/03/05 10:41:25;;;;;;;24.23;16.70;;;;;;;4.47;88.18;96622.16;5053963;28;20182;-78
2023/03/05 10:43:59;;;;;;;20.53;14.40;;;;;;;4.84;87.15;96615.75;5054584;28;20217;-78
2023/03/05 10:46:32;;;;;;;25.13;17.27;;;;;;;4.79;84.25;96618.13;5054637;28;20580;-78
2023/03/05 10:49:16;;;;;;;24.87;16.30;;;;;;;4.35;86.54;96613.31;5054497;28;20686;-78
2023/03/05 10:51:58;;;;;;;23.70;16.07;;;;;;;4.60;85.95;96606.66;5055056;28;20269;-77
2023/03/05 10:54:30;;;;;;;27.20;17.37;;;;;;;4.73;85.33;96609.31;5054894;28;20623;-77
2023/03/05 10:57:25;;;;;;;22.37;16.63;;;;;;;4.38;87.19;96610.34;5054602;28;20206;-77
2023/03/05 11:00:06;;;;;;;23.70;15.13;;;;;;;4.60;87.04;96607.47;5043660;28;20225;-77
2023/03/05 11:02:33;;;;;;;24.30;16.20;;;;;;;4.50;86.38;96594.03;5054172;28;20239;-77
2023/03/05 11:04:58;;;;;;;25.83;16.33;;;;;;;4.08;87.98;96596.78;5054930;28;20269;-78
2023/03/05 11:07:24;;;;;;;21.27;15.30;;;;;;;4.19;87.59;96596.25;5052625;28;20345;-77
2023/03/05 11:10:03;;;;;;;24.67;16.37;;;;;;;4.08;87.42;96595.00;5049183;28;20205;-78
2023/03/05 11:12:38;;;;;;;23.20;15.43;;;;;;;4.28;87.23;96589.94;5052285;28;20645;-76
2023/03/05 11:15:13;;;;;;;22.63;16.27;;;;;;;4.19;87.93;96584.09;5046602;28;20227;-78
2023/03/05 11:17:46;;;;;;;24.07;16.20;;;;;;;4.43;86.78;96577.63;5051875;28;20197;-76
2023/03/05 11:20:33;;;;;;;25.07;14.90;;;;;;;4.40;85.46;96585.78;5055471;28;20189;-77
2023/03/05 11:23:12;;;;;;;25.20;15.37;;;;;;;4.38;86.04;96581.81;5053206;28;20638;-74